Map

Track Data

SID SEASON NUMBER BASIN SUBBASIN NAME ISO_TIME NATURE LAT LON WMO_WIND WMO_PRES WMO_AGENCY TRACK_TYPE DIST2LAND LANDFALL IFLAG USA_AGENCY USA_ATCF_ID USA_LAT USA_LON USA_RECORD USA_STATUS USA_WIND USA_PRES USA_SSHS USA_R34_NE USA_R34_SE USA_R34_SW USA_R34_NW USA_R50_NE USA_R50_SE USA_R50_SW USA_R50_NW USA_R64_NE USA_R64_SE USA_R64_SW USA_R64_NW USA_POCI USA_ROCI USA_RMW USA_EYE TOKYO_LAT TOKYO_LON TOKYO_GRADE TOKYO_WIND TOKYO_PRES TOKYO_R50_DIR TOKYO_R50_LONG TOKYO_R50_SHORT TOKYO_R30_DIR TOKYO_R30_LONG TOKYO_R30_SHORT TOKYO_LAND CMA_LAT CMA_LON CMA_CAT CMA_WIND CMA_PRES HKO_LAT HKO_LON HKO_CAT HKO_WIND HKO_PRES NEWDELHI_LAT NEWDELHI_LON NEWDELHI_GRADE NEWDELHI_WIND NEWDELHI_PRES NEWDELHI_CI NEWDELHI_DP NEWDELHI_POCI REUNION_LAT REUNION_LON REUNION_TYPE REUNION_WIND REUNION_PRES REUNION_TNUM REUNION_CI REUNION_RMW REUNION_R34_NE REUNION_R34_SE REUNION_R34_SW REUNION_R34_NW REUNION_R50_NE REUNION_R50_SE REUNION_R50_SW REUNION_R50_NW REUNION_R64_NE REUNION_R64_SE REUNION_R64_SW REUNION_R64_NW BOM_LAT BOM_LON BOM_TYPE BOM_WIND BOM_PRES BOM_TNUM BOM_CI BOM_RMW BOM_R34_NE BOM_R34_SE BOM_R34_SW BOM_R34_NW BOM_R50_NE BOM_R50_SE BOM_R50_SW BOM_R50_NW BOM_R64_NE BOM_R64_SE BOM_R64_SW BOM_R64_NW BOM_ROCI BOM_POCI BOM_EYE BOM_POS_METHOD BOM_PRES_METHOD NADI_LAT NADI_LON NADI_CAT NADI_WIND NADI_PRES WELLINGTON_LAT WELLINGTON_LON WELLINGTON_WIND WELLINGTON_PRES DS824_LAT DS824_LON DS824_STAGE DS824_WIND DS824_PRES TD9636_LAT TD9636_LON TD9636_STAGE TD9636_WIND TD9636_PRES TD9635_LAT TD9635_LON TD9635_WIND TD9635_PRES TD9635_ROCI NEUMANN_LAT NEUMANN_LON NEUMANN_CLASS NEUMANN_WIND NEUMANN_PRES MLC_LAT MLC_LON MLC_CLASS MLC_WIND MLC_PRES USA_GUST BOM_GUST BOM_GUST_PER REUNION_GUST REUNION_GUST_PER USA_SEAHGT USA_SEARAD_NE USA_SEARAD_SE USA_SEARAD_SW USA_SEARAD_NW STORM_SPEED STORM_DIR
1995300N25301 1995 86 NA NA TANYA 1995-10-27 00:00:00 TS 24.6000 -59.2000 30 1004 hurdat_atl main 958 958 O_____________ hurdat_atl AL211995 24.6000 -59.2000 TD 30 1004 -1 9 39
1995300N25301 1995 86 NA NA TANYA 1995-10-27 03:00:00 TS 24.9301 -58.9077 main 1003 1003 P_____________ AL211995 24.9301 -58.9077 TD 30 1003 -1 9 38
1995300N25301 1995 86 NA NA TANYA 1995-10-27 06:00:00 TS 25.3000 -58.6000 30 1002 hurdat_atl main 1056 1056 O_____________ hurdat_atl AL211995 25.3000 -58.6000 TD 30 1002 -1 10 36
1995300N25301 1995 86 NA NA TANYA 1995-10-27 09:00:00 TS 25.7349 -58.2648 main 1109 1109 P_____________ AL211995 25.7349 -58.2648 TD 32 1001 -1 11 35
1995300N25301 1995 86 NA NA TANYA 1995-10-27 12:00:00 TS 26.2000 -57.9000 35 1001 hurdat_atl main 1177 1177 O_____________ hurdat_atl AL211995 26.2000 -57.9000 TS 35 1001 0 12 36
1995300N25301 1995 86 NA NA TANYA 1995-10-27 15:00:00 TS 26.7101 -57.4855 main 1245 1245 P_____________ AL211995 26.7101 -57.4855 TS 37 999 0 12 38
1995300N25301 1995 86 NA NA TANYA 1995-10-27 18:00:00 TS 27.1000 -57.1000 40 998 hurdat_atl main 1304 1304 O_____________ hurdat_atl AL211995 27.1000 -57.1000 TS 40 998 0 8 50
1995300N25301 1995 86 NA NA TANYA 1995-10-27 21:00:00 TS 27.2098 -56.8194 main 1333 1333 P_____________ AL211995 27.2098 -56.8194 TS 42 997 0 5 77
1995300N25301 1995 86 NA NA TANYA 1995-10-28 00:00:00 TS 27.2000 -56.6000 45 997 hurdat_atl main 1347 1347 O_____________ hurdat_atl AL211995 27.2000 -56.6000 TS 45 997 0 4 82
1995300N25301 1995 86 NA NA TANYA 1995-10-28 03:00:00 TS 27.2649 -56.4001 main 1369 1369 P_____________ AL211995 27.2649 -56.4001 TS 45 996 0 4 74
1995300N25301 1995 86 NA NA TANYA 1995-10-28 06:00:00 TS 27.3000 -56.2000 45 996 hurdat_atl main 1383 1383 O_____________ hurdat_atl AL211995 27.3000 -56.2000 TS 45 996 0 4 95
1995300N25301 1995 86 NA NA TANYA 1995-10-28 09:00:00 TS 27.2347 -55.9946 main 1389 1389 P_____________ AL211995 27.2347 -55.9946 TS 47 995 0 5 103
1995300N25301 1995 86 NA NA TANYA 1995-10-28 12:00:00 TS 27.2000 -55.7000 50 995 hurdat_atl main 1411 1411 O_____________ hurdat_atl AL211995 27.2000 -55.7000 TS 50 995 0 7 87
1995300N25301 1995 86 NA NA TANYA 1995-10-28 15:00:00 TS 27.2755 -55.2000 main 1456 1456 P_____________ AL211995 27.2755 -55.2000 TS 52 993 0 9 71
1995300N25301 1995 86 NA NA TANYA 1995-10-28 18:00:00 TS 27.5000 -54.7000 55 992 hurdat_atl main 1508 1508 O_____________ hurdat_atl AL211995 27.5000 -54.7000 TS 55 992 0 10 50
1995300N25301 1995 86 NA NA TANYA 1995-10-28 21:00:00 TS 27.8823 -54.3753 main 1559 1559 P_____________ AL211995 27.8823 -54.3753 TS 57 991 0 10 26
1995300N25301 1995 86 NA NA TANYA 1995-10-29 00:00:00 TS 28.4000 -54.2000 60 990 hurdat_atl main 1610 1610 O_____________ hurdat_atl AL211995 28.4000 -54.2000 TS 60 990 0 11 12
1995300N25301 1995 86 NA NA TANYA 1995-10-29 03:00:00 TS 28.9998 -54.1102 main 1663 1663 P_____________ AL211995 28.9998 -54.1102 TS 60 988 0 12 359
1995300N25301 1995 86 NA NA TANYA 1995-10-29 06:00:00 TS 29.6000 -54.2000 60 987 hurdat_atl main 1702 1702 O_____________ hurdat_atl AL211995 29.6000 -54.2000 TS 60 987 0 11 342
1995300N25301 1995 86 NA NA TANYA 1995-10-29 09:00:00 TS 30.0878 -54.5193 main 1722 1713 P_____________ AL211995 30.0878 -54.5193 TS 62 985 0 11 326
1995300N25301 1995 86 NA NA TANYA 1995-10-29 12:00:00 TS 30.5000 -54.9000 65 983 hurdat_atl main 1713 1660 O_____________ hurdat_atl AL211995 30.5000 -54.9000 HU 65 983 1 10 324
1995300N25301 1995 86 NA NA TANYA 1995-10-29 15:00:00 TS 30.8724 -55.1898 main 1660 1626 P_____________ AL211995 30.8724 -55.1898 HU 67 982 1 8 334
1995300N25301 1995 86 NA NA TANYA 1995-10-29 18:00:00 TS 31.2000 -55.3000 70 982 hurdat_atl main 1626 1602 O_____________ hurdat_atl AL211995 31.2000 -55.3000 HU 70 982 1 6 6
1995300N25301 1995 86 NA NA TANYA 1995-10-29 21:00:00 TS 31.4925 -55.1253 main 1607 1587 P_____________ AL211995 31.4925 -55.1253 HU 70 981 1 7 35
1995300N25301 1995 86 NA NA TANYA 1995-10-30 00:00:00 TS 31.8000 -54.8000 70 980 hurdat_atl main 1587 1551 O_____________ hurdat_atl AL211995 31.8000 -54.8000 HU 70 980 1 9 36
1995300N25301 1995 86 NA NA TANYA 1995-10-30 03:00:00 TS 32.2074 -54.5225 main 1554 1522 P_____________ AL211995 32.2074 -54.5225 HU 70 980 1 9 32
1995300N25301 1995 86 NA NA TANYA 1995-10-30 06:00:00 TS 32.6000 -54.2000 70 980 hurdat_atl main 1522 1508 O_____________ hurdat_atl AL211995 32.6000 -54.2000 HU 70 980 1 9 40
1995300N25301 1995 86 NA NA TANYA 1995-10-30 09:00:00 TS 32.8567 -53.8738 main 1501 1495 P_____________ AL211995 32.8567 -53.8738 HU 70 979 1 8 53
1995300N25301 1995 86 NA NA TANYA 1995-10-30 12:00:00 TS 33.1000 -53.4000 70 979 hurdat_atl main 1499 1469 O_____________ hurdat_atl AL211995 33.1000 -53.4000 HU 70 979 1 12 61
1995300N25301 1995 86 NA NA TANYA 1995-10-30 15:00:00 TS 33.4278 -52.6675 main 1469 1428 P_____________ AL211995 33.4278 -52.6675 HU 72 978 1 15 62
1995300N25301 1995 86 NA NA TANYA 1995-10-30 18:00:00 TS 33.8000 -51.8000 75 977 hurdat_atl main 1429 1392 O_____________ hurdat_atl AL211995 33.8000 -51.8000 HU 75 977 1 16 62
1995300N25301 1995 86 NA NA TANYA 1995-10-30 21:00:00 TS 34.1919 -50.9644 main 1392 1358 P_____________ AL211995 34.1919 -50.9644 HU 75 976 1 16 60
1995300N25301 1995 86 NA NA TANYA 1995-10-31 00:00:00 TS 34.6000 -50.1000 75 975 hurdat_atl main 1360 1329 O_____________ hurdat_atl AL211995 34.6000 -50.1000 HU 75 975 1 16 60
1995300N25301 1995 86 NA NA TANYA 1995-10-31 03:00:00 TS 34.9982 -49.2584 main 1331 1308 P_____________ AL211995 34.9982 -49.2584 HU 75 973 1 17 62
1995300N25301 1995 86 NA NA TANYA 1995-10-31 06:00:00 TS 35.4000 -48.3000 75 972 hurdat_atl main 1311 1300 O_____________ hurdat_atl AL211995 35.4000 -48.3000 HU 75 972 1 19 66
1995300N25301 1995 86 NA NA TANYA 1995-10-31 09:00:00 TS 35.7925 -47.1089 main 1303 1299 P_____________ AL211995 35.7925 -47.1089 HU 75 972 1 22 68
1995300N25301 1995 86 NA NA TANYA 1995-10-31 12:00:00 TS 36.2000 -45.8000 75 973 hurdat_atl main 1308 1306 O_____________ hurdat_atl AL211995 36.2000 -45.8000 HU 75 973 1 23 68
1995300N25301 1995 86 NA NA TANYA 1995-10-31 15:00:00 TS 36.6558 -44.5220 main 1314 1314 P_____________ AL211995 36.6558 -44.5220 HU 75 973 1 23 67
1995300N25301 1995 86 NA NA TANYA 1995-10-31 18:00:00 TS 37.1000 -43.2000 75 973 hurdat_atl main 1338 1338 O_____________ hurdat_atl AL211995 37.1000 -43.2000 HU 75 973 1 23 68
1995300N25301 1995 86 NA NA TANYA 1995-10-31 21:00:00 TS 37.5246 -41.7941 main 1377 1377 P_____________ AL211995 37.5246 -41.7941 HU 72 973 1 23 73
1995300N25301 1995 86 NA NA TANYA 1995-11-01 00:00:00 TS 37.8000 -40.4000 70 974 hurdat_atl main 1432 1432 O_____________ hurdat_atl AL211995 37.8000 -40.4000 HU 70 974 1 21 82
1995300N25301 1995 86 NA NA TANYA 1995-11-01 03:00:00 TS 37.8229 -39.1252 main 1511 1511 P_____________ AL211995 37.8229 -39.1252 HU 67 974 1 20 93
1995300N25301 1995 86 NA NA TANYA 1995-11-01 06:00:00 TS 37.7000 -37.9000 65 974 hurdat_atl main 1594 1594 O_____________ hurdat_atl AL211995 37.7000 -37.9000 HU 65 974 1 19 99
1995300N25301 1995 86 NA NA TANYA 1995-11-01 09:00:00 TS 37.5157 -36.7296 main 1686 1686 P_____________ AL211995 37.5157 -36.7296 HU 62 974 0 20 99
1995300N25301 1995 86 NA NA TANYA 1995-11-01 12:00:00 TS 37.4000 -35.4000 60 974 hurdat_atl main 1778 1778 O_____________ hurdat_atl AL211995 37.4000 -35.4000 TS 60 974 0 24 92
1995300N25301 1995 86 NA NA TANYA 1995-11-01 15:00:00 TS 37.4159 -33.6778 main 1869 1749 P_____________ AL211995 37.4159 -33.6778 TS 57 973 0 29 84
1995300N25301 1995 86 NA NA TANYA 1995-11-01 18:00:00 TS 37.7000 -31.8000 55 972 hurdat_atl main 1742 1645 O_____________ hurdat_atl AL211995 37.7000 -31.8000 TS 55 972 0 31 74
1995300N25301 1995 86 NA NA TANYA 1995-11-01 21:00:00 TS 38.2784 -29.9182 main 1645 1602 P_____________ AL211995 38.2784 -29.9182 TS 55 971 0 32 62
1995300N25301 1995 86 NA NA TANYA 1995-11-02 00:00:00 ET 39.2000 -28.2000 55 970 hurdat_atl main 1604 1484 O_____________ hurdat_atl AL211995 39.2000 -28.2000 EX 55 970 -4 32 49
1995300N25301 1995 86 NA NA TANYA 1995-11-02 03:00:00 ET 40.4073 -26.8075 main 1472 1356 P_____________ AL211995 40.4073 -26.8075 EX 55 970 -4 32 36
1995300N25301 1995 86 NA NA TANYA 1995-11-02 06:00:00 ET 41.8000 -25.7000 55 971 hurdat_atl main 1346 1254 O_____________ hurdat_atl AL211995 41.8000 -25.7000 EX 55 971 -4 31 30
1995300N25301 1995 86 NA NA TANYA 1995-11-02 09:00:00 ET 43.1187 -24.7334 main 1245 1185 P_____________ AL211995 43.1187 -24.7334 EX 52 972 -4 30 25
1995300N25301 1995 86 NA NA TANYA 1995-11-02 12:00:00 ET 44.5000 -24.0000 50 974 hurdat_atl main 1186 1142 O_____________ hurdat_atl AL211995 44.5000 -24.0000 EX 50 974 -4 30 20
1995300N25301 1995 86 NA NA TANYA 1995-11-02 15:00:00 ET 45.9769 -23.3043 main 1135 1025 P_____________ AL211995 45.9769 -23.3043 EX 47 975 -4 31 13
1995300N25301 1995 86 NA NA TANYA 1995-11-02 18:00:00 ET 47.5000 -23.0000 45 976 hurdat_atl main 1019 962 O_____________ hurdat_atl AL211995 47.5000 -23.0000 EX 45 976 -4 30 0
1995300N25301 1995 86 NA NA TANYA 1995-11-02 21:00:00 ET 49.0089 -23.3015 main 959 945 P_____________ AL211995 49.0089 -23.3015 EX 42 976 -4 31 348
1995300N25301 1995 86 NA NA TANYA 1995-11-03 00:00:00 ET 50.5000 -24.0000 40 977 hurdat_atl main 949 O_____________ hurdat_atl AL211995 50.5000 -24.0000 EX 40 977 -4 31 343

About IBTrACS Database

This database is a web-friendly format of International Best Track Archive for Climate Stewardship (IBTrACS), a global best track data archive curated by NOAA dating back to 1842.

Updated: 2021-11-26